sensor_id;sensor_type;location;lat;lon;timestamp;P1;durP1;ratioP1;P2;durP2;ratioP2
6344;SDS011;3205;42.666;23.264;2022-07-10T00:02:01;15.95;;;14.05;;
6344;SDS011;3205;42.666;23.264;2022-07-10T00:04:27;16.23;;;14.30;;
6344;SDS011;3205;42.666;23.264;2022-07-10T00:06:56;17.65;;;15.75;;
6344;SDS011;3205;42.666;23.264;2022-07-10T00:09:23;21.80;;;14.88;;
6344;SDS011;3205;42.666;23.264;2022-07-10T00:11:49;16.98;;;14.68;;
6344;SDS011;3205;42.666;23.264;2022-07-10T00:14:16;19.70;;;14.65;;
6344;SDS011;3205;42.666;23.264;2022-07-10T00:16:43;16.75;;;15.05;;
6344;SDS011;3205;42.666;23.264;2022-07-10T00:19:11;17.70;;;14.57;;
6344;SDS011;3205;42.666;23.264;2022-07-10T00:21:39;17.50;;;15.00;;
6344;SDS011;3205;42.666;23.264;2022-07-10T00:24:06;16.13;;;14.63;;
6344;SDS011;3205;42.666;23.264;2022-07-10T00:26:35;18.13;;;16.20;;
6344;SDS011;3205;42.666;23.264;2022-07-10T00:29:01;17.75;;;14.75;;
6344;SDS011;3205;42.666;23.264;2022-07-10T00:31:28;17.67;;;15.73;;
6344;SDS011;3205;42.666;23.264;2022-07-10T00:33:55;18.58;;;15.40;;
6344;SDS011;3205;42.666;23.264;2022-07-10T00:36:23;16.80;;;15.05;;
6344;SDS011;3205;42.666;23.264;2022-07-10T00:38:51;19.95;;;15.70;;
6344;SDS011;3205;42.666;23.264;2022-07-10T00:41:18;19.30;;;14.82;;
6344;SDS011;3205;42.666;23.264;2022-07-10T00:43:50;16.30;;;14.60;;
6344;SDS011;3205;42.666;23.264;2022-07-10T00:46:19;16.33;;;14.73;;
6344;SDS011;3205;42.666;23.264;2022-07-10T00:48:46;17.75;;;14.60;;
6344;SDS011;3205;42.666;23.264;2022-07-10T00:51:14;17.13;;;14.23;;
6344;SDS011;3205;42.666;23.264;2022-07-10T00:53:42;19.27;;;16.08;;
6344;SDS011;3205;42.666;23.264;2022-07-10T00:56:12;18.23;;;15.75;;
6344;SDS011;3205;42.666;23.264;2022-07-10T00:58:39;18.83;;;16.92;;
6344;SDS011;3205;42.666;23.264;2022-07-10T01:01:07;20.55;;;16.75;;
6344;SDS011;3205;42.666;23.264;2022-07-10T01:03:33;23.88;;;15.27;;
6344;SDS011;3205;42.666;23.264;2022-07-10T01:06:00;17.20;;;15.40;;
6344;SDS011;3205;42.666;23.264;2022-07-10T01:08:26;18.83;;;16.77;;
6344;SDS011;3205;42.666;23.264;2022-07-10T01:10:56;19.25;;;16.08;;
6344;SDS011;3205;42.666;23.264;2022-07-10T01:13:23;16.77;;;14.98;;
6344;SDS011;3205;42.666;23.264;2022-07-10T01:15:50;17.77;;;15.88;;
6344;SDS011;3205;42.666;23.264;2022-07-10T01:18:17;15.38;;;13.82;;
6344;SDS011;3205;42.666;23.264;2022-07-10T01:20:44;19.83;;;16.80;;
6344;SDS011;3205;42.666;23.264;2022-07-10T01:23:13;18.80;;;16.20;;
6344;SDS011;3205;42.666;23.264;2022-07-10T01:25:40;17.55;;;15.75;;
6344;SDS011;3205;42.666;23.264;2022-07-10T01:28:06;16.98;;;15.18;;
6344;SDS011;3205;42.666;23.264;2022-07-10T01:30:33;17.95;;;15.48;;
6344;SDS011;3205;42.666;23.264;2022-07-10T01:32:59;17.45;;;15.75;;
6344;SDS011;3205;42.666;23.264;2022-07-10T01:35:27;16.70;;;14.50;;
6344;SDS011;3205;42.666;23.264;2022-07-10T01:37:53;20.60;;;15.82;;
6344;SDS011;3205;42.666;23.264;2022-07-10T01:40:23;17.90;;;15.50;;
6344;SDS011;3205;42.666;23.264;2022-07-10T01:42:50;16.55;;;14.85;;
6344;SDS011;3205;42.666;23.264;2022-07-10T01:45:16;16.67;;;14.38;;
6344;SDS011;3205;42.666;23.264;2022-07-10T01:47:43;16.00;;;14.48;;
6344;SDS011;3205;42.666;23.264;2022-07-10T01:50:10;15.10;;;13.55;;
6344;SDS011;3205;42.666;23.264;2022-07-10T01:52:36;15.15;;;13.65;;
6344;SDS011;3205;42.666;23.264;2022-07-10T01:55:03;17.63;;;13.05;;
6344;SDS011;3205;42.666;23.264;2022-07-10T01:57:31;17.95;;;13.60;;
6344;SDS011;3205;42.666;23.264;2022-07-10T01:59:59;21.90;;;13.95;;
6344;SDS011;3205;42.666;23.264;2022-07-10T02:02:28;13.50;;;12.23;;
6344;SDS011;3205;42.666;23.264;2022-07-10T02:04:54;14.95;;;13.50;;
6344;SDS011;3205;42.666;23.264;2022-07-10T02:07:22;16.33;;;13.40;;
6344;SDS011;3205;42.666;23.264;2022-07-10T02:09:51;14.30;;;12.82;;
6344;SDS011;3205;42.666;23.264;2022-07-10T02:12:17;15.50;;;12.80;;
6344;SDS011;3205;42.666;23.264;2022-07-10T02:14:46;14.13;;;12.68;;
6344;SDS011;3205;42.666;23.264;2022-07-10T02:17:13;16.40;;;12.73;;
6344;SDS011;3205;42.666;23.264;2022-07-10T02:19:41;14.63;;;12.77;;
6344;SDS011;3205;42.666;23.264;2022-07-10T02:22:08;18.90;;;13.20;;
6344;SDS011;3205;42.666;23.264;2022-07-10T02:24:34;15.50;;;13.88;;
6344;SDS011;3205;42.666;23.264;2022-07-10T02:27:01;16.67;;;13.48;;
6344;SDS011;3205;42.666;23.264;2022-07-10T02:29:27;15.48;;;14.02;;
6344;SDS011;3205;42.666;23.264;2022-07-10T02:31:55;15.65;;;14.15;;
6344;SDS011;3205;42.666;23.264;2022-07-10T02:34:22;16.02;;;12.90;;
6344;SDS011;3205;42.666;23.264;2022-07-10T02:36:49;15.82;;;12.35;;
6344;SDS011;3205;42.666;23.264;2022-07-10T02:39:16;13.88;;;12.50;;
6344;SDS011;3205;42.666;23.264;2022-07-10T02:41:44;16.38;;;12.63;;
6344;SDS011;3205;42.666;23.264;2022-07-10T02:44:10;17.85;;;12.85;;
6344;SDS011;3205;42.666;23.264;2022-07-10T02:46:37;14.57;;;12.63;;
6344;SDS011;3205;42.666;23.264;2022-07-10T02:49:05;14.98;;;13.43;;
6344;SDS011;3205;42.666;23.264;2022-07-10T02:51:32;16.42;;;13.38;;
6344;SDS011;3205;42.666;23.264;2022-07-10T02:53:59;16.52;;;13.05;;
6344;SDS011;3205;42.666;23.264;2022-07-10T02:56:27;19.13;;;11.57;;
6344;SDS011;3205;42.666;23.264;2022-07-10T02:58:54;18.00;;;12.32;;
6344;SDS011;3205;42.666;23.264;2022-07-10T03:01:20;16.85;;;12.30;;
6344;SDS011;3205;42.666;23.264;2022-07-10T03:03:47;15.57;;;12.35;;
6344;SDS011;3205;42.666;23.264;2022-07-10T03:06:15;13.95;;;12.63;;
6344;SDS011;3205;42.666;23.264;2022-07-10T03:08:41;12.88;;;11.73;;
6344;SDS011;3205;42.666;23.264;2022-07-10T03:11:08;14.15;;;12.73;;
6344;SDS011;3205;42.666;23.264;2022-07-10T03:13:34;13.73;;;12.30;;
6344;SDS011;3205;42.666;23.264;2022-07-10T03:16:01;13.20;;;11.93;;
6344;SDS011;3205;42.666;23.264;2022-07-10T03:18:27;14.35;;;11.93;;
6344;SDS011;3205;42.666;23.264;2022-07-10T03:20:54;13.50;;;11.48;;
6344;SDS011;3205;42.666;23.264;2022-07-10T03:23:24;13.02;;;11.73;;
6344;SDS011;3205;42.666;23.264;2022-07-10T03:25:50;12.38;;;11.18;;
6344;SDS011;3205;42.666;23.264;2022-07-10T03:28:17;14.55;;;11.40;;
6344;SDS011;3205;42.666;23.264;2022-07-10T03:30:44;16.80;;;12.45;;
6344;SDS011;3205;42.666;23.264;2022-07-10T03:33:12;16.25;;;12.20;;
6344;SDS011;3205;42.666;23.264;2022-07-10T03:35:39;13.85;;;12.45;;
6344;SDS011;3205;42.666;23.264;2022-07-10T03:38:06;14.57;;;12.75;;
6344;SDS011;3205;42.666;23.264;2022-07-10T03:40:34;14.43;;;12.32;;
6344;SDS011;3205;42.666;23.264;2022-07-10T03:43:01;14.50;;;11.40;;
6344;SDS011;3205;42.666;23.264;2022-07-10T03:45:27;15.32;;;11.60;;
6344;SDS011;3205;42.666;23.264;2022-07-10T03:47:54;14.27;;;10.93;;
6344;SDS011;3205;42.666;23.264;2022-07-10T03:50:21;13.52;;;10.88;;
6344;SDS011;3205;42.666;23.264;2022-07-10T03:52:48;12.50;;;10.63;;
6344;SDS011;3205;42.666;23.264;2022-07-10T03:55:14;14.00;;;10.70;;
6344;SDS011;3205;42.666;23.264;2022-07-10T03:57:44;13.77;;;10.38;;
6344;SDS011;3205;42.666;23.264;2022-07-10T04:00:18;10.40;;;9.38;;
6344;SDS011;3205;42.666;23.264;2022-07-10T04:02:46;10.30;;;8.45;;
6344;SDS011;3205;42.666;23.264;2022-07-10T04:05:13;8.85;;;8.15;;
6344;SDS011;3205;42.666;23.264;2022-07-10T04:07:41;8.57;;;7.50;;
6344;SDS011;3205;42.666;23.264;2022-07-10T04:10:08;8.93;;;7.18;;
6344;SDS011;3205;42.666;23.264;2022-07-10T04:12:34;8.88;;;7.70;;
6344;SDS011;3205;42.666;23.264;2022-07-10T04:15:03;7.38;;;6.78;;
6344;SDS011;3205;42.666;23.264;2022-07-10T04:17:30;8.50;;;6.90;;
6344;SDS011;3205;42.666;23.264;2022-07-10T04:19:57;10.55;;;5.97;;
6344;SDS011;3205;42.666;23.264;2022-07-10T04:22:25;7.13;;;6.43;;
6344;SDS011;3205;42.666;23.264;2022-07-10T04:24:52;7.22;;;6.50;;
6344;SDS011;3205;42.666;23.264;2022-07-10T04:27:18;10.10;;;6.50;;
6344;SDS011;3205;42.666;23.264;2022-07-10T04:29:45;6.03;;;5.47;;
6344;SDS011;3205;42.666;23.264;2022-07-10T04:32:13;5.60;;;5.20;;
6344;SDS011;3205;42.666;23.264;2022-07-10T04:34:40;11.15;;;5.30;;
6344;SDS011;3205;42.666;23.264;2022-07-10T04:37:07;9.95;;;5.20;;
6344;SDS011;3205;42.666;23.264;2022-07-10T04:39:34;5.70;;;5.15;;
6344;SDS011;3205;42.666;23.264;2022-07-10T04:42:01;6.32;;;5.07;;
6344;SDS011;3205;42.666;23.264;2022-07-10T04:44:28;8.07;;;5.10;;
6344;SDS011;3205;42.666;23.264;2022-07-10T04:46:54;4.63;;;4.30;;
6344;SDS011;3205;42.666;23.264;2022-07-10T04:49:22;5.68;;;5.18;;
6344;SDS011;3205;42.666;23.264;2022-07-10T04:51:49;5.18;;;4.78;;
6344;SDS011;3205;42.666;23.264;2022-07-10T04:54:15;6.85;;;4.35;;
6344;SDS011;3205;42.666;23.264;2022-07-10T04:56:42;5.72;;;4.43;;
6344;SDS011;3205;42.666;23.264;2022-07-10T04:59:08;5.95;;;4.30;;
6344;SDS011;3205;42.666;23.264;2022-07-10T05:01:38;5.10;;;4.20;;
6344;SDS011;3205;42.666;23.264;2022-07-10T05:04:04;4.25;;;3.90;;
6344;SDS011;3205;42.666;23.264;2022-07-10T05:06:32;5.30;;;4.32;;
6344;SDS011;3205;42.666;23.264;2022-07-10T05:09:01;4.10;;;3.67;;
6344;SDS011;3205;42.666;23.264;2022-07-10T05:11:27;6.53;;;3.97;;
6344;SDS011;3205;42.666;23.264;2022-07-10T05:13:54;9.18;;;3.85;;
6344;SDS011;3205;42.666;23.264;2022-07-10T05:16:21;3.72;;;3.42;;
6344;SDS011;3205;42.666;23.264;2022-07-10T05:18:47;4.80;;;3.70;;
6344;SDS011;3205;42.666;23.264;2022-07-10T05:21:15;4.40;;;4.05;;
6344;SDS011;3205;42.666;23.264;2022-07-10T05:23:43;4.07;;;3.40;;
6344;SDS011;3205;42.666;23.264;2022-07-10T05:26:09;4.68;;;3.65;;
6344;SDS011;3205;42.666;23.264;2022-07-10T05:28:36;4.30;;;3.90;;
6344;SDS011;3205;42.666;23.264;2022-07-10T05:31:02;4.13;;;3.83;;
6344;SDS011;3205;42.666;23.264;2022-07-10T05:33:29;4.68;;;4.05;;
6344;SDS011;3205;42.666;23.264;2022-07-10T05:35:55;4.47;;;3.65;;
6344;SDS011;3205;42.666;23.264;2022-07-10T05:38:22;4.32;;;3.78;;
6344;SDS011;3205;42.666;23.264;2022-07-10T05:40:50;5.35;;;3.55;;
6344;SDS011;3205;42.666;23.264;2022-07-10T05:43:18;6.45;;;3.50;;
6344;SDS011;3205;42.666;23.264;2022-07-10T05:45:44;4.07;;;3.28;;
6344;SDS011;3205;42.666;23.264;2022-07-10T05:48:12;4.15;;;3.53;;
6344;SDS011;3205;42.666;23.264;2022-07-10T05:50:40;5.35;;;3.42;;
6344;SDS011;3205;42.666;23.264;2022-07-10T05:53:08;3.83;;;3.53;;
6344;SDS011;3205;42.666;23.264;2022-07-10T05:55:36;6.00;;;3.40;;
6344;SDS011;3205;42.666;23.264;2022-07-10T05:58:04;5.75;;;3.20;;
6344;SDS011;3205;42.666;23.264;2022-07-10T06:00:30;4.88;;;3.20;;
6344;SDS011;3205;42.666;23.264;2022-07-10T06:02:57;3.30;;;3.00;;
6344;SDS011;3205;42.666;23.264;2022-07-10T06:05:23;3.00;;;2.70;;
6344;SDS011;3205;42.666;23.264;2022-07-10T06:07:50;5.50;;;3.25;;
6344;SDS011;3205;42.666;23.264;2022-07-10T06:10:17;7.43;;;3.10;;
6344;SDS011;3205;42.666;23.264;2022-07-10T06:12:43;4.72;;;2.75;;
6344;SDS011;3205;42.666;23.264;2022-07-10T06:15:12;7.63;;;2.90;;
6344;SDS011;3205;42.666;23.264;2022-07-10T06:17:39;3.85;;;2.95;;
6344;SDS011;3205;42.666;23.264;2022-07-10T06:20:05;4.38;;;2.65;;
6344;SDS011;3205;42.666;23.264;2022-07-10T06:22:32;3.00;;;2.70;;
6344;SDS011;3205;42.666;23.264;2022-07-10T06:24:59;3.63;;;2.90;;
6344;SDS011;3205;42.666;23.264;2022-07-10T06:27:26;2.72;;;2.55;;
6344;SDS011;3205;42.666;23.264;2022-07-10T06:29:53;3.75;;;2.95;;
6344;SDS011;3205;42.666;23.264;2022-07-10T06:32:21;5.32;;;2.40;;
6344;SDS011;3205;42.666;23.264;2022-07-10T06:34:48;7.05;;;2.85;;
6344;SDS011;3205;42.666;23.264;2022-07-10T06:37:14;2.65;;;2.45;;
6344;SDS011;3205;42.666;23.264;2022-07-10T06:39:41;2.85;;;2.50;;
6344;SDS011;3205;42.666;23.264;2022-07-10T06:42:07;3.03;;;2.72;;
6344;SDS011;3205;42.666;23.264;2022-07-10T06:44:34;4.05;;;2.40;;
6344;SDS011;3205;42.666;23.264;2022-07-10T06:47:01;2.97;;;2.70;;
6344;SDS011;3205;42.666;23.264;2022-07-10T06:49:46;3.58;;;2.40;;
6344;SDS011;3205;42.666;23.264;2022-07-10T06:52:13;3.60;;;2.97;;
6344;SDS011;3205;42.666;23.264;2022-07-10T06:54:40;6.22;;;2.90;;
6344;SDS011;3205;42.666;23.264;2022-07-10T06:57:11;3.80;;;2.75;;
6344;SDS011;3205;42.666;23.264;2022-07-10T06:59:38;2.95;;;2.67;;
6344;SDS011;3205;42.666;23.264;2022-07-10T07:02:04;2.75;;;2.55;;
6344;SDS011;3205;42.666;23.264;2022-07-10T07:04:32;3.10;;;2.75;;
6344;SDS011;3205;42.666;23.264;2022-07-10T07:07:00;3.80;;;2.58;;
6344;SDS011;3205;42.666;23.264;2022-07-10T07:09:29;5.93;;;2.88;;
6344;SDS011;3205;42.666;23.264;2022-07-10T07:11:55;2.75;;;2.20;;
6344;SDS011;3205;42.666;23.264;2022-07-10T07:14:24;2.60;;;2.40;;
6344;SDS011;3205;42.666;23.264;2022-07-10T07:16:50;2.90;;;2.70;;
6344;SDS011;3205;42.666;23.264;2022-07-10T07:19:25;4.28;;;3.30;;
6344;SDS011;3205;42.666;23.264;2022-07-10T07:21:57;3.13;;;2.63;;
6344;SDS011;3205;42.666;23.264;2022-07-10T07:24:42;2.90;;;2.40;;
6344;SDS011;3205;42.666;23.264;2022-07-10T07:27:09;3.70;;;2.40;;
6344;SDS011;3205;42.666;23.264;2022-07-10T07:29:37;5.47;;;2.50;;
6344;SDS011;3205;42.666;23.264;2022-07-10T07:32:06;4.53;;;2.53;;
6344;SDS011;3205;42.666;23.264;2022-07-10T07:34:33;6.22;;;2.70;;
6344;SDS011;3205;42.666;23.264;2022-07-10T07:37:02;5.50;;;2.80;;
6344;SDS011;3205;42.666;23.264;2022-07-10T07:39:29;2.75;;;2.47;;
6344;SDS011;3205;42.666;23.264;2022-07-10T07:41:58;3.08;;;2.75;;
6344;SDS011;3205;42.666;23.264;2022-07-10T07:44:25;3.40;;;2.60;;
6344;SDS011;3205;42.666;23.264;2022-07-10T07:46:51;4.18;;;2.55;;
6344;SDS011;3205;42.666;23.264;2022-07-10T07:49:19;4.43;;;2.47;;
6344;SDS011;3205;42.666;23.264;2022-07-10T07:51:47;3.58;;;2.35;;
6344;SDS011;3205;42.666;23.264;2022-07-10T07:54:13;3.95;;;2.83;;
6344;SDS011;3205;42.666;23.264;2022-07-10T07:56:41;6.25;;;2.42;;
6344;SDS011;3205;42.666;23.264;2022-07-10T07:59:09;2.83;;;2.42;;
6344;SDS011;3205;42.666;23.264;2022-07-10T08:01:37;3.47;;;2.67;;
6344;SDS011;3205;42.666;23.264;2022-07-10T08:04:04;2.30;;;2.20;;
6344;SDS011;3205;42.666;23.264;2022-07-10T08:06:31;6.05;;;2.78;;
6344;SDS011;3205;42.666;23.264;2022-07-10T08:08:57;4.60;;;2.42;;
6344;SDS011;3205;42.666;23.264;2022-07-10T08:11:24;4.55;;;2.70;;
6344;SDS011;3205;42.666;23.264;2022-07-10T08:13:50;6.63;;;2.40;;
6344;SDS011;3205;42.666;23.264;2022-07-10T08:16:18;2.60;;;2.50;;
6344;SDS011;3205;42.666;23.264;2022-07-10T08:18:45;3.50;;;2.30;;
6344;SDS011;3205;42.666;23.264;2022-07-10T08:21:12;2.55;;;2.30;;
6344;SDS011;3205;42.666;23.264;2022-07-10T08:23:39;1.83;;;1.73;;
6344;SDS011;3205;42.666;23.264;2022-07-10T08:26:05;2.53;;;2.03;;
6344;SDS011;3205;42.666;23.264;2022-07-10T08:28:32;2.28;;;2.17;;
6344;SDS011;3205;42.666;23.264;2022-07-10T08:30:59;2.35;;;2.15;;
6344;SDS011;3205;42.666;23.264;2022-07-10T08:33:27;2.42;;;2.22;;
6344;SDS011;3205;42.666;23.264;2022-07-10T08:35:54;2.17;;;2.08;;
6344;SDS011;3205;42.666;23.264;2022-07-10T08:38:25;2.33;;;2.13;;
6344;SDS011;3205;42.666;23.264;2022-07-10T08:40:51;2.40;;;2.30;;
6344;SDS011;3205;42.666;23.264;2022-07-10T08:43:22;3.88;;;2.10;;
6344;SDS011;3205;42.666;23.264;2022-07-10T08:45:49;3.42;;;2.13;;
6344;SDS011;3205;42.666;23.264;2022-07-10T08:48:17;2.50;;;2.40;;
6344;SDS011;3205;42.666;23.264;2022-07-10T08:50:47;2.28;;;2.17;;
6344;SDS011;3205;42.666;23.264;2022-07-10T08:53:15;3.15;;;2.00;;
6344;SDS011;3205;42.666;23.264;2022-07-10T08:55:44;3.03;;;2.22;;
6344;SDS011;3205;42.666;23.264;2022-07-10T08:58:11;2.33;;;2.10;;
6344;SDS011;3205;42.666;23.264;2022-07-10T09:00:38;2.88;;;2.13;;
6344;SDS011;3205;42.666;23.264;2022-07-10T09:03:05;6.40;;;2.40;;
6344;SDS011;3205;42.666;23.264;2022-07-10T09:05:33;3.88;;;2.00;;
6344;SDS011;3205;42.666;23.264;2022-07-10T09:08:03;2.88;;;2.55;;
6344;SDS011;3205;42.666;23.264;2022-07-10T09:10:29;2.90;;;2.60;;
6344;SDS011;3205;42.666;23.264;2022-07-10T09:12:59;2.05;;;1.95;;
6344;SDS011;3205;42.666;23.264;2022-07-10T09:15:26;5.28;;;1.98;;
6344;SDS011;3205;42.666;23.264;2022-07-10T09:17:55;2.83;;;2.20;;
6344;SDS011;3205;42.666;23.264;2022-07-10T09:20:29;2.28;;;2.03;;
6344;SDS011;3205;42.666;23.264;2022-07-10T09:22:58;2.33;;;2.13;;
6344;SDS011;3205;42.666;23.264;2022-07-10T09:25:31;4.22;;;1.90;;
6344;SDS011;3205;42.666;23.264;2022-07-10T09:27:59;9.68;;;2.30;;
6344;SDS011;3205;42.666;23.264;2022-07-10T09:30:34;2.45;;;2.13;;
6344;SDS011;3205;42.666;23.264;2022-07-10T09:33:19;2.55;;;2.35;;
6344;SDS011;3205;42.666;23.264;2022-07-10T09:36:03;2.97;;;2.20;;
6344;SDS011;3205;42.666;23.264;2022-07-10T09:38:50;2.30;;;2.10;;
6344;SDS011;3205;42.666;23.264;2022-07-10T09:41:19;2.10;;;2.00;;
6344;SDS011;3205;42.666;23.264;2022-07-10T09:43:47;8.25;;;2.10;;
6344;SDS011;3205;42.666;23.264;2022-07-10T09:46:14;2.33;;;2.10;;
6344;SDS011;3205;42.666;23.264;2022-07-10T09:48:40;3.50;;;2.03;;
6344;SDS011;3205;42.666;23.264;2022-07-10T09:51:08;3.45;;;2.30;;
6344;SDS011;3205;42.666;23.264;2022-07-10T09:53:36;6.47;;;2.63;;
6344;SDS011;3205;42.666;23.264;2022-07-10T09:56:04;4.97;;;2.40;;
6344;SDS011;3205;42.666;23.264;2022-07-10T09:58:34;3.28;;;2.20;;
6344;SDS011;3205;42.666;23.264;2022-07-10T10:01:02;4.68;;;2.13;;
6344;SDS011;3205;42.666;23.264;2022-07-10T10:03:30;2.22;;;2.00;;
6344;SDS011;3205;42.666;23.264;2022-07-10T10:06:00;7.32;;;2.70;;
6344;SDS011;3205;42.666;23.264;2022-07-10T10:08:28;3.05;;;2.10;;
6344;SDS011;3205;42.666;23.264;2022-07-10T10:10:56;13.05;;;2.88;;
6344;SDS011;3205;42.666;23.264;2022-07-10T10:13:26;6.00;;;2.17;;
6344;SDS011;3205;42.666;23.264;2022-07-10T10:15:54;6.28;;;2.08;;
6344;SDS011;3205;42.666;23.264;2022-07-10T10:18:21;2.15;;;1.70;;
6344;SDS011;3205;42.666;23.264;2022-07-10T10:20:49;5.85;;;2.38;;
6344;SDS011;3205;42.666;23.264;2022-07-10T10:23:16;3.85;;;2.15;;
6344;SDS011;3205;42.666;23.264;2022-07-10T10:25:46;4.20;;;2.10;;
6344;SDS011;3205;42.666;23.264;2022-07-10T10:28:13;3.78;;;2.38;;
6344;SDS011;3205;42.666;23.264;2022-07-10T10:30:41;2.20;;;2.00;;
6344;SDS011;3205;42.666;23.264;2022-07-10T10:35:55;2.53;;;1.98;;
6344;SDS011;3205;42.666;23.264;2022-07-10T10:38:24;2.90;;;2.10;;
6344;SDS011;3205;42.666;23.264;2022-07-10T10:40:51;2.92;;;2.40;;
6344;SDS011;3205;42.666;23.264;2022-07-10T10:43:18;2.85;;;2.50;;
6344;SDS011;3205;42.666;23.264;2022-07-10T10:45:45;3.92;;;2.38;;
6344;SDS011;3205;42.666;23.264;2022-07-10T10:48:12;2.50;;;2.22;;
6344;SDS011;3205;42.666;23.264;2022-07-10T10:50:40;3.58;;;2.20;;
6344;SDS011;3205;42.666;23.264;2022-07-10T10:53:15;4.22;;;2.60;;
6344;SDS011;3205;42.666;23.264;2022-07-10T10:58:24;6.18;;;2.17;;
6344;SDS011;3205;42.666;23.264;2022-07-10T11:00:51;2.53;;;2.33;;
6344;SDS011;3205;42.666;23.264;2022-07-10T11:03:20;4.80;;;2.08;;
6344;SDS011;3205;42.666;23.264;2022-07-10T11:05:48;4.70;;;2.13;;
6344;SDS011;3205;42.666;23.264;2022-07-10T11:08:34;3.25;;;2.10;;
6344;SDS011;3205;42.666;23.264;2022-07-10T11:11:04;3.20;;;1.80;;
6344;SDS011;3205;42.666;23.264;2022-07-10T11:13:51;3.38;;;2.50;;
6344;SDS011;3205;42.666;23.264;2022-07-10T11:16:23;3.95;;;2.50;;
6344;SDS011;3205;42.666;23.264;2022-07-10T11:18:52;3.20;;;2.10;;
6344;SDS011;3205;42.666;23.264;2022-07-10T11:21:21;3.42;;;2.05;;
6344;SDS011;3205;42.666;23.264;2022-07-10T11:23:54;6.15;;;2.30;;
6344;SDS011;3205;42.666;23.264;2022-07-10T11:26:24;2.30;;;2.10;;
6344;SDS011;3205;42.666;23.264;2022-07-10T11:28:51;2.30;;;2.10;;
6344;SDS011;3205;42.666;23.264;2022-07-10T11:31:19;2.30;;;2.00;;
6344;SDS011;3205;42.666;23.264;2022-07-10T11:33:46;3.15;;;2.08;;
6344;SDS011;3205;42.666;23.264;2022-07-10T11:36:16;2.25;;;2.05;;
6344;SDS011;3205;42.666;23.264;2022-07-10T11:38:46;4.88;;;1.85;;
6344;SDS011;3205;42.666;23.264;2022-07-10T11:41:16;2.50;;;2.30;;
6344;SDS011;3205;42.666;23.264;2022-07-10T11:43:48;2.10;;;2.00;;
6344;SDS011;3205;42.666;23.264;2022-07-10T11:46:15;2.95;;;2.17;;
6344;SDS011;3205;42.666;23.264;2022-07-10T11:48:42;4.60;;;1.70;;
6344;SDS011;3205;42.666;23.264;2022-07-10T11:51:17;2.28;;;2.08;;
6344;SDS011;3205;42.666;23.264;2022-07-10T11:53:52;4.60;;;2.33;;
6344;SDS011;3205;42.666;23.264;2022-07-10T11:56:20;2.33;;;2.03;;
6344;SDS011;3205;42.666;23.264;2022-07-10T11:58:53;2.50;;;2.03;;
6344;SDS011;3205;42.666;23.264;2022-07-10T12:01:19;3.42;;;1.95;;
6344;SDS011;3205;42.666;23.264;2022-07-10T12:03:53;2.35;;;2.08;;
6344;SDS011;3205;42.666;23.264;2022-07-10T12:06:20;2.28;;;1.98;;
6344;SDS011;3205;42.666;23.264;2022-07-10T12:08:47;2.50;;;1.95;;
6344;SDS011;3205;42.666;23.264;2022-07-10T12:11:15;2.65;;;1.67;;
6344;SDS011;3205;42.666;23.264;2022-07-10T12:13:44;3.75;;;1.90;;
6344;SDS011;3205;42.666;23.264;2022-07-10T12:16:11;1.98;;;1.85;;
6344;SDS011;3205;42.666;23.264;2022-07-10T12:18:39;4.20;;;2.47;;
6344;SDS011;3205;42.666;23.264;2022-07-10T12:21:06;2.13;;;1.98;;
6344;SDS011;3205;42.666;23.264;2022-07-10T12:23:34;2.53;;;2.33;;
6344;SDS011;3205;42.666;23.264;2022-07-10T12:26:04;2.13;;;1.98;;
6344;SDS011;3205;42.666;23.264;2022-07-10T12:28:31;4.70;;;1.90;;
6344;SDS011;3205;42.666;23.264;2022-07-10T12:31:20;2.83;;;1.42;;
6344;SDS011;3205;42.666;23.264;2022-07-10T12:33:49;5.07;;;2.10;;
6344;SDS011;3205;42.666;23.264;2022-07-10T12:36:16;2.67;;;1.73;;
6344;SDS011;3205;42.666;23.264;2022-07-10T12:38:43;3.45;;;1.55;;
6344;SDS011;3205;42.666;23.264;2022-07-10T12:41:18;1.98;;;1.88;;
6344;SDS011;3205;42.666;23.264;2022-07-10T12:43:49;1.80;;;1.70;;
6344;SDS011;3205;42.666;23.264;2022-07-10T12:46:18;3.97;;;1.63;;
6344;SDS011;3205;42.666;23.264;2022-07-10T12:51:44;2.20;;;1.80;;
6344;SDS011;3205;42.666;23.264;2022-07-10T12:56:56;4.10;;;1.50;;
6344;SDS011;3205;42.666;23.264;2022-07-10T12:59:22;2.92;;;1.65;;
6344;SDS011;3205;42.666;23.264;2022-07-10T13:01:49;1.88;;;1.77;;
6344;SDS011;3205;42.666;23.264;2022-07-10T13:04:22;1.90;;;1.63;;
6344;SDS011;3205;42.666;23.264;2022-07-10T13:06:50;2.85;;;1.30;;
6344;SDS011;3205;42.666;23.264;2022-07-10T13:09:19;4.75;;;1.67;;
6344;SDS011;3205;42.666;23.264;2022-07-10T13:11:46;2.08;;;1.40;;
6344;SDS011;3205;42.666;23.264;2022-07-10T13:14:13;6.70;;;1.30;;
6344;SDS011;3205;42.666;23.264;2022-07-10T13:16:40;1.67;;;1.50;;
6344;SDS011;3205;42.666;23.264;2022-07-10T13:19:06;1.42;;;1.15;;
6344;SDS011;3205;42.666;23.264;2022-07-10T13:21:33;2.35;;;1.30;;
6344;SDS011;3205;42.666;23.264;2022-07-10T13:24:01;1.35;;;1.25;;
6344;SDS011;3205;42.666;23.264;2022-07-10T13:26:28;1.40;;;1.30;;
6344;SDS011;3205;42.666;23.264;2022-07-10T13:28:55;1.98;;;1.30;;
6344;SDS011;3205;42.666;23.264;2022-07-10T13:31:22;2.45;;;1.52;;
6344;SDS011;3205;42.666;23.264;2022-07-10T13:33:49;1.77;;;1.67;;
6344;SDS011;3205;42.666;23.264;2022-07-10T13:36:16;3.28;;;1.50;;
6344;SDS011;3205;42.666;23.264;2022-07-10T13:38:42;2.50;;;1.55;;
6344;SDS011;3205;42.666;23.264;2022-07-10T13:41:10;2.60;;;1.40;;
6344;SDS011;3205;42.666;23.264;2022-07-10T13:43:37;1.95;;;1.58;;
6344;SDS011;3205;42.666;23.264;2022-07-10T13:46:04;1.70;;;1.40;;
6344;SDS011;3205;42.666;23.264;2022-07-10T13:48:32;1.80;;;1.70;;
6344;SDS011;3205;42.666;23.264;2022-07-10T13:51:00;2.78;;;1.60;;
6344;SDS011;3205;42.666;23.264;2022-07-10T13:53:26;1.85;;;1.35;;
6344;SDS011;3205;42.666;23.264;2022-07-10T13:55:54;1.60;;;1.50;;
6344;SDS011;3205;42.666;23.264;2022-07-10T13:58:22;1.30;;;1.20;;
6344;SDS011;3205;42.666;23.264;2022-07-10T14:00:50;2.45;;;1.30;;
6344;SDS011;3205;42.666;23.264;2022-07-10T14:03:16;1.30;;;1.20;;
6344;SDS011;3205;42.666;23.264;2022-07-10T14:05:44;1.45;;;1.35;;
6344;SDS011;3205;42.666;23.264;2022-07-10T14:08:11;3.95;;;1.20;;
6344;SDS011;3205;42.666;23.264;2022-07-10T14:10:38;1.40;;;1.30;;
6344;SDS011;3205;42.666;23.264;2022-07-10T14:13:04;1.35;;;1.30;;
6344;SDS011;3205;42.666;23.264;2022-07-10T14:15:35;2.10;;;1.50;;
6344;SDS011;3205;42.666;23.264;2022-07-10T14:18:05;1.58;;;1.48;;
6344;SDS011;3205;42.666;23.264;2022-07-10T14:20:32;2.13;;;1.25;;
6344;SDS011;3205;42.666;23.264;2022-07-10T14:23:18;2.22;;;1.40;;
6344;SDS011;3205;42.666;23.264;2022-07-10T14:25:45;3.63;;;1.50;;
6344;SDS011;3205;42.666;23.264;2022-07-10T14:28:12;3.65;;;2.10;;
6344;SDS011;3205;42.666;23.264;2022-07-10T14:30:40;3.50;;;1.75;;
6344;SDS011;3205;42.666;23.264;2022-07-10T14:33:07;2.72;;;1.90;;
6344;SDS011;3205;42.666;23.264;2022-07-10T14:35:34;5.60;;;2.03;;
6344;SDS011;3205;42.666;23.264;2022-07-10T14:38:01;2.05;;;1.70;;
6344;SDS011;3205;42.666;23.264;2022-07-10T14:40:28;3.53;;;1.52;;
6344;SDS011;3205;42.666;23.264;2022-07-10T14:42:54;2.75;;;1.30;;
6344;SDS011;3205;42.666;23.264;2022-07-10T14:45:22;1.40;;;1.30;;
6344;SDS011;3205;42.666;23.264;2022-07-10T14:47:51;3.95;;;1.73;;
6344;SDS011;3205;42.666;23.264;2022-07-10T14:50:19;1.60;;;1.50;;
6344;SDS011;3205;42.666;23.264;2022-07-10T14:52:46;1.75;;;1.60;;
6344;SDS011;3205;42.666;23.264;2022-07-10T14:55:12;3.20;;;1.80;;
6344;SDS011;3205;42.666;23.264;2022-07-10T14:57:41;2.75;;;2.03;;
6344;SDS011;3205;42.666;23.264;2022-07-10T15:00:08;3.75;;;1.30;;
6344;SDS011;3205;42.666;23.264;2022-07-10T15:02:34;2.88;;;1.40;;
6344;SDS011;3205;42.666;23.264;2022-07-10T15:05:04;4.78;;;2.03;;
6344;SDS011;3205;42.666;23.264;2022-07-10T15:07:30;2.03;;;1.85;;
6344;SDS011;3205;42.666;23.264;2022-07-10T15:09:57;1.70;;;1.60;;